Time;durP1;ratioP1;P1;durP2;ratioP2;P2;SDS_P1;SDS_P2;PMS_P1;PMS_P2;Temp;Humidity;BMP_temperature;BMP_pressure;BME280_temperature;BME280_humidity;BME280_pressure;Samples;Min_cycle;Max_cycle;Signal;HPM_P1;HPM_P2
2022/08/03 00:02:16;;;;;;;4.88;3.50;;;22.90;84.30;;;;;;4862423;29;20076;-84
2022/08/03 00:04:44;;;;;;;5.97;4.13;;;22.90;84.60;;;;;;4872153;29;20053;-83
2022/08/03 00:07:11;;;;;;;5.28;3.70;;;23.00;84.60;;;;;;4871749;29;20077;-83
2022/08/03 00:09:39;;;;;;;5.15;3.38;;;23.00;85.00;;;;;;4869065;29;20053;-83
2022/08/03 00:12:06;;;;;;;5.32;4.20;;;22.90;85.00;;;;;;4875573;29;20373;-84
2022/08/03 00:14:34;;;;;;;4.88;3.90;;;22.90;85.00;;;;;;4854412;29;20057;-83
2022/08/03 00:17:02;;;;;;;6.30;3.95;;;22.90;85.50;;;;;;4875725;29;20049;-83
2022/08/03 00:19:29;;;;;;;5.03;4.00;;;22.90;86.10;;;;;;4855479;29;20247;-84
2022/08/03 00:21:57;;;;;;;4.53;3.78;;;22.90;85.60;;;;;;4860210;29;20393;-82
2022/08/03 00:24:24;;;;;;;4.13;3.50;;;22.90;86.00;;;;;;4854486;29;20049;-81
2022/08/03 00:26:51;;;;;;;5.50;3.92;;;22.80;86.20;;;;;;4835368;29;20063;-82
2022/08/03 00:29:19;;;;;;;5.28;4.10;;;22.80;86.50;;;;;;4860560;29;20125;-81
2022/08/03 00:31:46;;;;;;;4.75;4.03;;;22.70;86.90;;;;;;4838355;29;20055;-84
2022/08/03 00:34:26;;;;;;;5.20;3.90;;;22.60;87.50;;;;;;4856919;29;20052;-84
2022/08/03 00:37:13;;;;;;;6.55;4.13;;;22.60;87.80;;;;;;4862042;29;20056;-84
2022/08/03 00:39:44;;;;;;;4.47;3.90;;;22.60;87.80;;;;;;4838575;29;20048;-84
2022/08/03 00:42:12;;;;;;;5.68;4.10;;;22.70;87.90;;;;;;4871587;29;20088;-84
2022/08/03 00:44:41;;;;;;;4.75;4.07;;;22.60;88.80;;;;;;4834521;29;20081;-84
2022/08/03 00:47:10;;;;;;;6.25;4.55;;;22.60;88.40;;;;;;4877164;29;20045;-84
2022/08/03 00:49:39;;;;;;;6.25;4.15;;;22.50;88.70;;;;;;4843075;29;20052;-84
2022/08/03 00:52:12;;;;;;;4.55;3.83;;;22.50;88.90;;;;;;4839663;29;20508;-84
2022/08/03 00:54:40;;;;;;;5.00;4.10;;;22.50;89.70;;;;;;4872783;29;20053;-84
2022/08/03 00:57:07;;;;;;;6.07;4.85;;;22.50;89.30;;;;;;4875805;29;20499;-85
2022/08/03 00:59:37;;;;;;;6.03;4.10;;;22.50;89.20;;;;;;4833708;29;20094;-84
2022/08/03 01:02:05;;;;;;;5.55;4.65;;;22.50;89.40;;;;;;4873192;29;20144;-84
2022/08/03 01:04:32;;;;;;;6.15;4.50;;;22.50;89.90;;;;;;4852523;29;20042;-85
2022/08/03 01:07:16;;;;;;;4.80;4.25;;;22.40;90.10;;;;;;4875171;29;20049;-82
2022/08/03 01:09:49;;;;;;;5.57;4.15;;;22.40;90.20;;;;;;4853745;29;20617;-84
2022/08/03 01:12:42;;;;;;;6.10;4.55;;;22.40;90.30;;;;;;4836092;29;20139;-83
2022/08/03 01:15:30;;;;;;;6.85;4.13;;;22.40;90.50;;;;;;4875019;29;20061;-84
2022/08/03 01:18:03;;;;;;;6.03;4.30;;;22.40;90.70;;;;;;4856495;29;20048;-83
2022/08/03 01:20:34;;;;;;;5.95;4.50;;;22.30;90.90;;;;;;4832318;29;20049;-83
2022/08/03 01:23:20;;;;;;;7.18;4.78;;;22.30;91.10;;;;;;4859321;29;20076;-84
2022/08/03 01:26:19;;;;;;;6.38;4.75;;;22.30;91.20;;;;;;4848063;29;20148;-83
2022/08/03 01:29:37;;;;;;;7.18;5.20;;;22.20;91.50;;;;;;4874242;29;20081;-83
2022/08/03 01:32:13;;;;;;;6.90;4.78;;;22.20;91.90;;;;;;4838400;29;20077;-82
2022/08/03 01:35:07;;;;;;;6.85;4.45;;;22.20;92.30;;;;;;4873899;29;20045;-83
2022/08/03 01:37:50;;;;;;;5.50;4.63;;;22.10;92.50;;;;;;4840035;29;20049;-83
2022/08/03 01:40:21;;;;;;;4.93;4.43;;;22.10;92.40;;;;;;4854388;29;20408;-83
2022/08/03 01:42:51;;;;;;;6.90;5.05;;;22.10;92.40;;;;;;4837458;29;20057;-83
2022/08/03 01:45:21;;;;;;;6.63;4.82;;;22.10;92.60;;;;;;4861769;29;20045;-81
2022/08/03 01:47:52;;;;;;;7.57;5.40;;;22.00;92.70;;;;;;4878058;29;20097;-81
2022/08/03 01:50:27;;;;;;;8.95;4.90;;;22.00;93.10;;;;;;4860020;29;20056;-84
2022/08/03 01:52:57;;;;;;;6.68;5.13;;;22.00;93.40;;;;;;4893433;29;20063;-83
2022/08/03 01:55:27;;;;;;;7.05;5.53;;;22.00;93.20;;;;;;4864065;29;20056;-83
2022/08/03 01:57:57;;;;;;;6.78;5.18;;;22.00;93.70;;;;;;4879638;29;20064;-84
2022/08/03 02:00:36;;;;;;;8.43;5.07;;;21.90;93.50;;;;;;4858303;29;20052;-84
2022/08/03 02:03:06;;;;;;;6.60;4.97;;;21.90;94.20;;;;;;4853589;29;20048;-84
2022/08/03 02:05:35;;;;;;;7.55;5.28;;;21.90;94.30;;;;;;4859159;29;20076;-84
2022/08/03 02:08:06;;;;;;;5.53;4.93;;;21.90;94.00;;;;;;4878839;29;20096;-84
2022/08/03 02:10:36;;;;;;;5.50;4.93;;;21.90;94.30;;;;;;4891547;29;20047;-83
2022/08/03 02:13:07;;;;;;;10.98;5.28;;;21.80;94.20;;;;;;4857788;29;20522;-83
2022/08/03 02:15:37;;;;;;;9.00;4.73;;;21.80;94.40;;;;;;4867530;29;20057;-84
2022/08/03 02:18:08;;;;;;;7.97;5.22;;;21.80;94.50;;;;;;4883608;29;20484;-84
2022/08/03 02:20:38;;;;;;;6.32;4.78;;;21.70;94.90;;;;;;4857889;29;20207;-83
2022/08/03 02:23:08;;;;;;;7.18;5.22;;;21.70;95.10;;;;;;4864241;29;20142;-84
2022/08/03 02:25:43;;;;;;;6.65;5.57;;;21.70;95.00;;;;;;4864182;29;20052;-83
2022/08/03 02:28:18;;;;;;;6.75;4.78;;;21.70;95.10;;;;;;4870004;29;20045;-84
2022/08/03 02:30:55;;;;;;;6.82;5.50;;;21.60;95.60;;;;;;4853518;29;20058;-83
2022/08/03 02:33:33;;;;;;;9.95;6.07;;;21.60;95.80;;;;;;4858887;29;20050;-84
2022/08/03 02:36:02;;;;;;;6.30;5.20;;;21.60;95.80;;;;;;4857151;29;20144;-85
2022/08/03 02:38:37;;;;;;;6.78;5.47;;;21.60;95.50;;;;;;4839344;29;20053;-85
2022/08/03 02:41:12;;;;;;;7.20;5.30;;;21.50;95.90;;;;;;4831047;29;20054;-84
2022/08/03 02:43:42;;;;;;;6.68;4.95;;;21.50;96.00;;;;;;4872973;29;20042;-85
2022/08/03 02:46:37;;;;;;;6.68;5.20;;;21.50;96.20;;;;;;4843921;29;20038;-84
2022/08/03 02:49:06;;;;;;;7.43;5.20;;;21.50;96.50;;;;;;4872573;29;20050;-85
2022/08/03 02:51:56;;;;;;;7.05;5.30;;;21.50;96.40;;;;;;4861586;29;20037;-85
2022/08/03 02:54:26;;;;;;;8.45;6.55;;;21.50;96.50;;;;;;4857377;29;20050;-84
2022/08/03 02:56:57;;;;;;;7.57;5.53;;;21.40;96.70;;;;;;4843994;29;20419;-84
2022/08/03 02:59:30;;;;;;;7.05;5.50;;;21.40;97.00;;;;;;4858824;29;20050;-84
2022/08/03 03:02:00;;;;;;;7.97;5.37;;;21.40;97.40;;;;;;4858594;29;20053;-83
2022/08/03 03:04:30;;;;;;;8.27;5.00;;;21.40;97.60;;;;;;4843053;29;20328;-84
2022/08/03 03:07:01;;;;;;;7.80;5.13;;;21.40;97.40;;;;;;4837117;29;20059;-83
2022/08/03 03:09:33;;;;;;;8.68;4.85;;;21.40;97.50;;;;;;4860294;29;20049;-84
2022/08/03 03:12:11;;;;;;;6.13;5.03;;;21.40;97.90;;;;;;4862933;29;20060;-84
2022/08/03 03:14:39;;;;;;;6.63;5.03;;;21.40;97.80;;;;;;4859782;29;20049;-84
2022/08/03 03:17:09;;;;;;;8.98;5.40;;;21.30;98.00;;;;;;4851163;29;20046;-83
2022/08/03 03:19:39;;;;;;;10.15;4.80;;;21.30;98.30;;;;;;4876457;29;20492;-83
2022/08/03 03:22:08;;;;;;;8.88;5.20;;;21.30;98.40;;;;;;4859356;29;20049;-84
2022/08/03 03:24:36;;;;;;;10.25;5.40;;;21.20;98.40;;;;;;4853606;29;20059;-83
2022/08/03 03:27:04;;;;;;;10.13;6.63;;;21.30;98.50;;;;;;4848627;29;20101;-84
2022/08/03 03:29:33;;;;;;;8.68;5.85;;;21.20;98.70;;;;;;4836365;29;20049;-84
2022/08/03 03:32:06;;;;;;;8.07;5.18;;;21.20;98.60;;;;;;4849276;29;20496;-83
2022/08/03 03:34:36;;;;;;;7.45;5.35;;;21.20;98.60;;;;;;4875241;29;20049;-84
2022/08/03 03:37:04;;;;;;;7.35;5.18;;;21.10;98.50;;;;;;4861332;29;20478;-84
2022/08/03 03:39:31;;;;;;;8.32;6.03;;;21.10;98.60;;;;;;4854372;29;20049;-83
2022/08/03 03:41:59;;;;;;;7.85;5.68;;;21.10;98.80;;;;;;4856022;29;20069;-84
2022/08/03 03:44:28;;;;;;;8.20;5.47;;;21.10;98.80;;;;;;4856011;29;20160;-84
2022/08/03 03:46:57;;;;;;;8.27;5.88;;;21.00;99.00;;;;;;4860848;29;20064;-84
2022/08/03 03:49:25;;;;;;;7.40;5.47;;;21.10;99.10;;;;;;4858646;29;20057;-84
2022/08/03 03:51:54;;;;;;;6.50;5.10;;;21.00;99.00;;;;;;4874765;29;20105;-84
2022/08/03 03:54:21;;;;;;;9.70;6.13;;;21.00;99.10;;;;;;4837603;29;20101;-84
2022/08/03 03:56:51;;;;;;;12.32;6.35;;;21.00;99.40;;;;;;4875890;29;20052;-84
2022/08/03 03:59:18;;;;;;;6.80;5.50;;;21.00;99.30;;;;;;4857016;29;20053;-83
2022/08/03 04:01:46;;;;;;;9.02;5.13;;;21.00;99.40;;;;;;4854603;29;20076;-84
2022/08/03 04:12:44;;;;;;;9.80;5.30;;;21.00;99.80;;;;;;4856428;29;20055;-83
2022/08/03 04:15:20;;;;;;;15.68;5.70;;;21.00;99.80;;;;;;4836580;29;20064;-82
2022/08/03 04:17:50;;;;;;;8.15;5.20;;;21.00;99.90;;;;;;4861199;29;20053;-84
2022/08/03 04:20:20;;;;;;;9.70;5.68;;;21.00;99.90;;;;;;4875722;29;20308;-83
2022/08/03 04:22:50;;;;;;;9.45;5.63;;;21.00;99.90;;;;;;4833811;29;20060;-84
2022/08/03 04:25:21;;;;;;;9.75;5.28;;;21.10;99.90;;;;;;4872890;29;20101;-83
2022/08/03 04:27:51;;;;;;;9.00;5.35;;;21.10;99.90;;;;;;4851635;29;20093;-83
2022/08/03 04:30:46;;;;;;;10.55;5.20;;;21.10;99.90;;;;;;4838735;29;20042;-84
2022/08/03 04:33:15;;;;;;;6.88;5.10;;;21.20;99.90;;;;;;4860104;29;20125;-84
2022/08/03 04:35:46;;;;;;;7.85;5.35;;;21.30;99.60;;;;;;4837943;29;20065;-85
2022/08/03 04:38:35;;;;;;;8.93;5.32;;;21.30;99.20;;;;;;4860743;29;20064;-84
2022/08/03 04:41:03;;;;;;;8.50;4.78;;;21.30;99.20;;;;;;4836409;29;20080;-84
2022/08/03 04:43:33;;;;;;;7.53;5.07;;;21.30;99.30;;;;;;4876030;29;20072;-84
2022/08/03 04:46:01;;;;;;;9.27;5.35;;;21.40;99.10;;;;;;4833988;29;20488;-84
2022/08/03 04:48:29;;;;;;;10.80;5.30;;;21.40;98.90;;;;;;4858186;29;20072;-84
2022/08/03 04:50:56;;;;;;;10.05;4.97;;;21.50;98.80;;;;;;4876971;29;20041;-84
2022/08/03 04:53:24;;;;;;;8.05;5.72;;;21.50;98.70;;;;;;4836601;29;20121;-83
2022/08/03 04:55:51;;;;;;;7.10;4.75;;;21.60;98.70;;;;;;4855069;29;20050;-84
2022/08/03 04:58:18;;;;;;;9.85;5.07;;;21.70;98.70;;;;;;4850971;29;20087;-84
2022/08/03 05:00:49;;;;;;;7.82;4.68;;;21.80;97.90;;;;;;4858688;29;20047;-84
2022/08/03 05:03:17;;;;;;;7.47;4.30;;;21.80;97.40;;;;;;4845345;29;20087;-87
2022/08/03 05:05:51;;;;;;;6.10;4.40;;;21.90;97.30;;;;;;4878528;29;20062;-85
2022/08/03 05:08:28;;;;;;;7.55;4.47;;;21.80;97.10;;;;;;4842141;29;20250;-85
2022/08/03 05:10:57;;;;;;;6.85;3.92;;;21.90;97.10;;;;;;4880189;29;20041;-86
2022/08/03 05:13:25;;;;;;;6.70;4.43;;;22.00;96.60;;;;;;4879800;29;20045;-89
2022/08/03 05:15:52;;;;;;;5.50;4.40;;;22.10;96.00;;;;;;4864223;29;20136;-86
2022/08/03 05:18:20;;;;;;;6.53;4.22;;;22.10;95.90;;;;;;4863996;29;20049;-84
2022/08/03 05:20:48;;;;;;;7.18;4.47;;;22.20;95.70;;;;;;4839558;29;20052;-85
2022/08/03 05:23:15;;;;;;;6.30;4.15;;;22.40;95.30;;;;;;4863592;29;20057;-86
2022/08/03 05:25:42;;;;;;;5.72;4.18;;;22.50;94.80;;;;;;4879236;29;20077;-84
2022/08/03 05:28:15;;;;;;;6.88;3.97;;;22.60;94.40;;;;;;4861234;29;20152;-84
2022/08/03 05:30:43;;;;;;;6.00;4.13;;;22.80;93.80;;;;;;4839081;29;20049;-85
2022/08/03 05:33:10;;;;;;;8.10;4.65;;;22.90;93.60;;;;;;4874540;29;20088;-86
2022/08/03 05:35:38;;;;;;;6.60;3.88;;;23.00;92.50;;;;;;4862074;29;20129;-82
2022/08/03 05:38:26;;;;;;;6.50;4.55;;;23.10;92.90;;;;;;4874644;29;20046;-85
2022/08/03 05:41:02;;;;;;;6.45;4.05;;;23.30;92.30;;;;;;4842109;29;20128;-85
2022/08/03 05:43:51;;;;;;;6.15;4.28;;;23.40;91.40;;;;;;4877730;29;20435;-85
2022/08/03 05:46:19;;;;;;;6.88;5.07;;;23.60;91.30;;;;;;4878815;29;20040;-84
2022/08/03 05:48:46;;;;;;;6.05;4.20;;;23.80;90.70;;;;;;4863146;29;20049;-89
2022/08/03 05:51:14;;;;;;;7.85;4.30;;;23.80;89.80;;;;;;4878243;29;20057;-84
2022/08/03 05:53:42;;;;;;;6.88;4.72;;;23.90;89.10;;;;;;4852564;29;20314;-85
2022/08/03 05:56:11;;;;;;;6.32;5.00;;;24.10;89.50;;;;;;4847716;29;20161;-85
2022/08/03 05:58:47;;;;;;;8.80;5.32;;;24.30;88.70;;;;;;4859799;29;20097;-84
2022/08/03 06:01:16;;;;;;;9.43;4.93;;;24.40;87.70;;;;;;4842021;29;20059;-86
2022/08/03 06:03:44;;;;;;;7.60;4.72;;;24.50;86.10;;;;;;4878284;29;20290;-84
2022/08/03 06:06:12;;;;;;;6.47;4.57;;;24.60;85.50;;;;;;4852175;29;20484;-80
2022/08/03 06:08:41;;;;;;;6.88;4.65;;;24.80;84.80;;;;;;4844450;29;20053;-84
2022/08/03 06:11:09;;;;;;;7.43;5.45;;;24.90;82.70;;;;;;4833615;29;20042;-84
2022/08/03 06:13:37;;;;;;;6.82;4.75;;;25.00;83.10;;;;;;4856392;29;20420;-84
2022/08/03 06:16:04;;;;;;;8.15;5.57;;;25.10;82.50;;;;;;4851899;29;20046;-84
2022/08/03 06:18:32;;;;;;;7.60;4.95;;;25.20;81.90;;;;;;4843809;29;20049;-83
2022/08/03 06:20:59;;;;;;;6.07;5.05;;;25.30;81.70;;;;;;4859544;29;20053;-82
2022/08/03 06:23:42;;;;;;;7.18;5.10;;;25.40;82.60;;;;;;4873614;29;20073;-83
2022/08/03 06:26:25;;;;;;;6.70;4.90;;;25.50;80.50;;;;;;4854402;29;20497;-84
2022/08/03 06:28:53;;;;;;;;;;;25.70;81.00;;;;;;4871673;29;20053;-83
2022/08/03 06:31:28;;;;;;;7.70;5.70;;;25.80;80.30;;;;;;4859632;29;19932;-84
2022/08/03 06:34:04;;;;;;;9.35;6.15;;;25.80;78.50;;;;;;4833935;29;20280;-84
2022/08/03 06:36:51;;;;;;;7.05;5.15;;;25.70;79.40;;;;;;4857115;29;20038;-84
2022/08/03 06:39:23;;;;;;;7.80;5.07;;;25.90;78.40;;;;;;4871574;29;20140;-82
2022/08/03 06:41:51;;;;;;;9.68;5.60;;;26.10;78.50;;;;;;4858358;29;20140;-83
2022/08/03 06:44:18;;;;;;;6.72;5.32;;;26.20;78.00;;;;;;4848901;29;20312;-83
2022/08/03 06:46:46;;;;;;;7.60;5.68;;;26.30;77.20;;;;;;4838334;29;20061;-84
2022/08/03 06:49:13;;;;;;;6.45;5.28;;;26.30;76.60;;;;;;4832848;29;20063;-83
2022/08/03 06:51:41;;;;;;;7.22;5.22;;;26.40;76.70;;;;;;4836990;29;20099;-83
2022/08/03 06:54:28;;;;;;;8.43;5.53;;;26.50;76.10;;;;;;4857918;29;20050;-84
2022/08/03 06:56:59;;;;;;;7.22;5.32;;;26.50;75.40;;;;;;4837569;29;20054;-83
2022/08/03 06:59:26;;;;;;;9.82;5.38;;;26.60;75.20;;;;;;4856961;29;20064;-82
2022/08/03 07:02:14;;;;;;;6.40;5.10;;;26.70;74.80;;;;;;4851431;29;20064;-82
2022/08/03 07:04:47;;;;;;;8.90;5.22;;;26.70;75.30;;;;;;4838525;29;20139;-85
2022/08/03 07:07:14;;;;;;;6.72;5.18;;;26.80;75.10;;;;;;4874078;29;20048;-83
2022/08/03 07:09:41;;;;;;;9.35;6.20;;;27.00;74.90;;;;;;4839875;29;20056;-83
2022/08/03 07:12:23;;;;;;;9.98;5.20;;;27.00;72.50;;;;;;4864413;29;20397;-84
2022/08/03 07:14:51;;;;;;;6.55;5.15;;;27.10;72.90;;;;;;4877083;29;20049;-84
2022/08/03 07:17:24;;;;;;;7.65;4.85;;;27.10;72.30;;;;;;4859896;29;20398;-83
2022/08/03 07:19:51;;;;;;;6.97;4.80;;;27.20;73.00;;;;;;4841198;29;20060;-83
2022/08/03 07:22:19;;;;;;;6.40;5.50;;;27.30;71.60;;;;;;4846103;29;20238;-82
2022/08/03 07:24:46;;;;;;;8.05;5.32;;;27.30;71.80;;;;;;4840309;29;20223;-83
2022/08/03 07:27:15;;;;;;;6.63;5.07;;;27.30;71.40;;;;;;4861061;29;20152;-84
2022/08/03 07:29:42;;;;;;;9.63;6.20;;;27.40;72.40;;;;;;4833418;29;20045;-81
2022/08/03 07:32:09;;;;;;;6.63;5.45;;;27.60;70.70;;;;;;4859733;29;20073;-83
2022/08/03 07:34:37;;;;;;;6.63;4.82;;;27.70;71.80;;;;;;4840831;29;20121;-82
2022/08/03 07:37:04;;;;;;;6.07;5.18;;;27.70;70.30;;;;;;4845886;29;20053;-82
2022/08/03 07:39:32;;;;;;;7.78;5.60;;;27.70;69.60;;;;;;4836728;29;20045;-81
2022/08/03 07:41:59;;;;;;;6.53;5.32;;;27.70;69.70;;;;;;4861338;29;20464;-83
2022/08/03 07:44:26;;;;;;;8.63;5.50;;;27.80;70.80;;;;;;4849448;29;20057;-83
2022/08/03 07:46:54;;;;;;;7.93;5.40;;;27.80;69.60;;;;;;4859729;29;20072;-83
2022/08/03 07:49:22;;;;;;;8.68;5.55;;;27.80;70.20;;;;;;4875995;29;20442;-84
2022/08/03 07:52:46;;;;;;;7.25;5.35;;;27.60;68.90;;;;;;4860824;29;20136;-83
2022/08/03 07:54:37;;;;;;;7.70;5.38;;;27.60;70.20;;;;;;4858310;29;20060;-83
2022/08/03 07:57:05;;;;;;;10.63;5.35;;;27.80;70.00;;;;;;4844730;29;20045;-85
2022/08/03 07:59:34;;;;;;;8.88;5.32;;;27.50;69.10;;;;;;4875384;29;20053;-81
2022/08/03 08:02:21;;;;;;;9.32;5.45;;;27.80;70.20;;;;;;4847208;29;20037;-84
2022/08/03 08:04:49;;;;;;;6.55;5.10;;;27.90;70.70;;;;;;4855387;29;20129;-83
2022/08/03 08:07:16;;;;;;;11.68;6.10;;;28.10;69.60;;;;;;4841225;29;20048;-83
2022/08/03 08:09:46;;;;;;;6.18;5.45;;;28.00;68.50;;;;;;4846119;29;20053;-83
2022/08/03 08:12:14;;;;;;;5.03;4.53;;;28.10;69.40;;;;;;4848107;29;20046;-81
2022/08/03 08:14:45;;;;;;;5.70;4.60;;;28.20;69.10;;;;;;4852860;29;20065;-84
2022/08/03 08:17:13;;;;;;;8.85;5.70;;;28.20;66.50;;;;;;4831245;29;20073;-82
2022/08/03 08:19:40;;;;;;;6.13;5.13;;;28.10;67.20;;;;;;4852669;29;20132;-84
2022/08/03 08:22:18;;;;;;;6.07;4.85;;;28.30;67.20;;;;;;4871472;29;20887;-83
2022/08/03 08:24:58;;;;;;;5.53;4.95;;;28.50;67.80;;;;;;4847516;29;20052;-83
2022/08/03 08:27:28;;;;;;;7.70;5.55;;;28.40;66.10;;;;;;4842247;29;20057;-84
2022/08/03 08:30:18;;;;;;;5.57;4.55;;;28.50;66.60;;;;;;4848495;29;20077;-84
2022/08/03 08:32:46;;;;;;;6.15;4.90;;;28.60;65.90;;;;;;4844501;29;20148;-80
2022/08/03 08:35:14;;;;;;;6.75;4.75;;;28.50;65.00;;;;;;4855596;29;20042;-84
2022/08/03 08:37:42;;;;;;;8.50;4.57;;;28.40;66.10;;;;;;4857337;29;20148;-82
2022/08/03 08:40:20;;;;;;;6.30;5.07;;;28.50;66.60;;;;;;4835283;29;20050;-83
2022/08/03 08:42:47;;;;;;;7.78;5.05;;;28.60;65.60;;;;;;4845326;29;20492;-82
2022/08/03 08:45:25;;;;;;;5.35;4.80;;;28.70;66.20;;;;;;4859951;29;20050;-83
2022/08/03 08:47:54;;;;;;;5.20;4.20;;;28.80;65.40;;;;;;4839213;29;20065;-83
2022/08/03 08:50:28;;;;;;;5.43;4.93;;;28.80;63.90;;;;;;4839110;29;20072;-85
2022/08/03 08:52:59;;;;;;;4.95;4.45;;;28.80;65.40;;;;;;4854618;29;20057;-82
2022/08/03 08:55:27;;;;;;;4.80;3.97;;;28.80;64.00;;;;;;4873845;29;20045;-82
2022/08/03 08:58:00;;;;;;;6.85;4.88;;;28.80;63.70;;;;;;4841704;29;20065;-82
2022/08/03 09:00:29;;;;;;;5.28;4.20;;;28.80;64.00;;;;;;4845766;29;20073;-79
2022/08/03 09:02:57;;;;;;;5.90;3.80;;;29.00;64.10;;;;;;4841086;29;20041;-80
2022/08/03 09:05:25;;;;;;;5.20;3.78;;;29.00;63.80;;;;;;4864637;29;20053;-81
2022/08/03 09:08:12;;;;;;;5.10;3.70;;;29.10;63.30;;;;;;4857295;29;20503;-82
2022/08/03 09:10:40;;;;;;;4.05;3.65;;;29.20;64.30;;;;;;4840468;29;20061;-82
2022/08/03 09:13:07;;;;;;;4.35;3.90;;;29.30;63.10;;;;;;4848064;29;20068;-80
2022/08/03 09:15:36;;;;;;;5.45;4.60;;;29.30;61.70;;;;;;4844353;29;20128;-80
2022/08/03 09:18:04;;;;;;;4.45;3.72;;;29.20;62.10;;;;;;4860398;29;20066;-80
2022/08/03 09:20:33;;;;;;;4.45;4.00;;;29.10;61.90;;;;;;4863503;29;20048;-84
2022/08/03 09:23:07;;;;;;;5.70;4.43;;;29.00;63.10;;;;;;4857098;29;20049;-82
2022/08/03 09:25:58;;;;;;;5.40;3.90;;;29.10;64.00;;;;;;4856922;29;20049;-85
2022/08/03 09:28:33;;;;;;;4.68;3.35;;;29.20;61.40;;;;;;4876515;29;20536;-80
2022/08/03 09:31:41;;;;;;;4.68;3.50;;;29.00;61.10;;;;;;4851641;29;20120;-81
2022/08/03 09:34:12;;;;;;;4.55;3.85;;;29.00;61.40;;;;;;4858654;29;20105;-81
2022/08/03 09:36:43;;;;;;;6.50;3.90;;;29.20;61.30;;;;;;4843206;29;20500;-81
2022/08/03 09:39:13;;;;;;;3.90;3.35;;;29.10;59.50;;;;;;4840269;29;20059;-83
2022/08/03 09:41:42;;;;;;;3.40;2.97;;;28.90;60.50;;;;;;4861686;29;20496;-78
2022/08/03 09:44:10;;;;;;;6.80;4.18;;;29.00;61.00;;;;;;4862615;29;20504;-79
2022/08/03 09:46:54;;;;;;;5.43;4.13;;;29.20;61.50;;;;;;4846030;29;20045;-81
2022/08/03 09:49:23;;;;;;;4.50;3.90;;;29.30;61.90;;;;;;4860405;29;20293;-79
2022/08/03 09:51:52;;;;;;;5.28;4.20;;;29.30;61.50;;;;;;4849080;29;20072;-79
2022/08/03 09:54:41;;;;;;;4.65;3.70;;;29.30;64.00;;;;;;4862469;29;20090;-80
2022/08/03 09:57:22;;;;;;;5.07;3.08;;;29.50;61.20;;;;;;4849708;29;20132;-82
2022/08/03 09:59:51;;;;;;;4.88;3.20;;;29.60;59.70;;;;;;4861239;29;20560;-79
2022/08/03 10:02:39;;;;;;;4.78;3.30;;;29.40;60.20;;;;;;4879108;29;20485;-81
2022/08/03 10:05:08;;;;;;;4.43;3.40;;;29.40;59.60;;;;;;4858077;29;20054;-81
2022/08/03 10:07:48;;;;;;;5.05;3.88;;;29.30;60.10;;;;;;4850402;29;20060;-79
2022/08/03 10:10:17;;;;;;;5.25;3.25;;;29.40;62.30;;;;;;4859476;29;20057;-81
2022/08/03 10:12:57;;;;;;;3.97;3.15;;;29.50;59.60;;;;;;4856045;29;20579;-82
2022/08/03 10:15:24;;;;;;;4.20;3.80;;;29.60;60.10;;;;;;4861460;29;20052;-80
2022/08/03 10:18:13;;;;;;;3.50;2.95;;;29.50;60.10;;;;;;4859588;29;20061;-81
2022/08/03 10:20:50;;;;;;;2.95;2.65;;;29.40;59.70;;;;;;4852974;29;20106;-82
2022/08/03 10:23:20;;;;;;;3.88;2.88;;;29.40;58.70;;;;;;4851936;29;20573;-84
2022/08/03 10:25:53;;;;;;;3.47;2.97;;;29.60;58.10;;;;;;4835128;29;20516;-82
2022/08/03 10:28:21;;;;;;;3.40;3.10;;;29.60;58.50;;;;;;4849070;29;20054;-83
2022/08/03 10:30:51;;;;;;;2.70;2.50;;;29.80;57.50;;;;;;4842025;29;20593;-85
2022/08/03 10:33:20;;;;;;;4.97;2.83;;;29.80;57.10;;;;;;4859214;29;20049;-83
2022/08/03 10:36:08;;;;;;;4.63;3.20;;;29.80;58.00;;;;;;4859678;29;20046;-80
2022/08/03 10:38:45;;;;;;;4.32;3.28;;;29.70;57.00;;;;;;4859354;29;20045;-80
2022/08/03 10:41:16;;;;;;;3.45;3.15;;;29.90;58.40;;;;;;4842535;29;20069;-80
2022/08/03 10:43:57;;;;;;;5.25;3.15;;;29.90;58.60;;;;;;4836780;29;20113;-81
2022/08/03 10:46:27;;;;;;;6.68;3.58;;;29.90;58.60;;;;;;4831144;29;20098;-79
2022/08/03 10:48:56;;;;;;;3.55;3.25;;;29.70;58.80;;;;;;4857802;29;20053;-79
2022/08/03 10:51:29;;;;;;;4.38;3.08;;;29.40;59.50;;;;;;4849963;29;20145;-79
2022/08/03 10:53:57;;;;;;;3.50;3.00;;;29.60;59.10;;;;;;4856587;29;20429;-79
2022/08/03 10:59:45;;;;;;;3.60;3.00;;;29.90;57.60;;;;;;4873061;29;20394;-81
2022/08/03 11:02:13;;;;;;;4.72;2.95;;;30.00;56.10;;;;;;4857275;29;20041;-82
2022/08/03 11:04:41;;;;;;;3.30;2.63;;;29.90;57.60;;;;;;4858957;29;20073;-80
2022/08/03 11:07:20;;;;;;;3.60;2.40;;;30.10;58.10;;;;;;4836957;29;20053;-84
2022/08/03 11:09:53;;;;;;;4.15;2.28;;;30.20;56.80;;;;;;4851137;29;20061;-82
2022/08/03 11:12:29;;;;;;;3.70;2.30;;;30.20;57.70;;;;;;4861090;29;20479;-81
2022/08/03 11:15:04;;;;;;;3.28;2.60;;;30.30;57.00;;;;;;4877965;29;20411;-80
2022/08/03 11:17:32;;;;;;;2.60;2.15;;;30.50;57.00;;;;;;4860076;29;20055;-82
2022/08/03 11:20:53;;;;;;;9.95;3.17;;;30.60;57.10;;;;;;4846975;29;20140;-78
2022/08/03 11:23:44;;;;;;;3.67;2.60;;;30.50;55.80;;;;;;4845626;29;20144;-79
2022/08/03 11:26:29;;;;;;;2.58;2.38;;;30.50;56.00;;;;;;4861131;29;20105;-80
2022/08/03 11:29:27;;;;;;;2.90;2.30;;;30.50;54.90;;;;;;4853063;29;20508;-80
2022/08/03 11:31:55;;;;;;;4.30;2.40;;;30.60;55.70;;;;;;4858931;29;20045;-79
2022/08/03 11:34:23;;;;;;;3.88;2.50;;;30.30;53.70;;;;;;4846270;29;20058;-79
2022/08/03 11:37:21;;;;;;;2.97;2.08;;;30.00;55.00;;;;;;4877507;29;20076;-83
2022/08/03 11:39:53;;;;;;;3.38;2.53;;;30.10;54.50;;;;;;4866734;29;20057;-82
2022/08/03 11:42:24;;;;;;;2.78;2.28;;;29.90;55.00;;;;;;4848439;29;20094;-80
2022/08/03 11:44:59;;;;;;;2.42;2.17;;;29.60;54.60;;;;;;4855329;29;20045;-80
2022/08/03 11:47:28;;;;;;;2.33;2.13;;;29.40;53.80;;;;;;4839697;29;20053;-82
2022/08/03 11:50:00;;;;;;;3.28;2.15;;;29.20;54.80;;;;;;4860802;29;20057;-80
2022/08/03 11:52:37;;;;;;;2.40;2.20;;;29.10;55.10;;;;;;4860286;29;20056;-80
2022/08/03 11:55:09;;;;;;;3.08;2.33;;;29.00;55.30;;;;;;4858823;29;20054;-81
2022/08/03 11:57:36;;;;;;;3.45;2.22;;;29.00;55.70;;;;;;4874567;29;20049;-80
2022/08/03 12:00:31;;;;;;;2.83;2.10;;;29.00;57.10;;;;;;4856926;29;20474;-81
2022/08/03 12:03:10;;;;;;;2.95;2.47;;;29.00;55.40;;;;;;4872766;29;20045;-82
2022/08/03 12:05:51;;;;;;;2.22;1.88;;;29.00;55.80;;;;;;4844305;29;20068;-84
2022/08/03 12:08:30;;;;;;;3.70;2.53;;;29.00;55.20;;;;;;4840019;29;20056;-79
2022/08/03 12:11:00;;;;;;;3.50;2.35;;;29.00;56.00;;;;;;4840836;29;20058;-82
2022/08/03 12:13:40;;;;;;;3.88;2.42;;;29.00;56.50;;;;;;4856221;29;20059;-80
2022/08/03 12:16:27;;;;;;;4.00;2.67;;;29.00;55.70;;;;;;4843306;29;20465;-79
2022/08/03 12:19:02;;;;;;;3.17;2.30;;;28.90;56.90;;;;;;4835604;29;20585;-80
2022/08/03 12:21:30;;;;;;;3.13;2.20;;;28.90;57.00;;;;;;4843972;29;20077;-82
2022/08/03 12:24:03;;;;;;;4.80;2.30;;;28.90;55.80;;;;;;4869524;29;20050;-81
2022/08/03 12:26:46;;;;;;;3.10;2.33;;;28.80;56.30;;;;;;4848963;29;20106;-81
2022/08/03 12:29:26;;;;;;;3.10;2.47;;;28.80;56.70;;;;;;4855883;29;20053;-82
2022/08/03 12:31:53;;;;;;;3.58;2.70;;;28.80;56.10;;;;;;4829161;29;20050;-81
2022/08/03 12:34:22;;;;;;;2.42;2.17;;;28.70;57.60;;;;;;4857014;29;20049;-81
2022/08/03 12:36:51;;;;;;;4.28;3.03;;;28.70;57.70;;;;;;4850439;29;20408;-81
2022/08/03 12:39:23;;;;;;;3.30;2.83;;;28.70;58.20;;;;;;4857362;29;20528;-82
2022/08/03 12:41:55;;;;;;;2.50;2.30;;;28.90;57.40;;;;;;4837197;29;20161;-82
2022/08/03 12:44:30;;;;;;;;;;;29.30;57.50;;;;;;4856468;29;20461;-81
2022/08/03 12:46:58;;;;;;;5.07;3.17;;;29.30;56.90;;;;;;4838818;29;19923;-81
2022/08/03 12:49:26;;;;;;;3.47;2.33;;;29.30;57.20;;;;;;4834171;29;20060;-83
2022/08/03 12:51:56;;;;;;;3.67;2.60;;;29.50;55.80;;;;;;4841596;29;20073;-83
2022/08/03 12:54:26;;;;;;;4.28;2.80;;;29.60;54.60;;;;;;4847442;29;20060;-81
2022/08/03 12:56:59;;;;;;;2.78;2.35;;;29.70;56.10;;;;;;4838982;29;20140;-81
2022/08/03 12:59:32;;;;;;;3.15;2.13;;;29.90;55.80;;;;;;4855026;29;20441;-89
2022/08/03 13:02:13;;;;;;;2.45;2.22;;;29.90;55.50;;;;;;4854388;29;20042;-83
2022/08/03 13:04:41;;;;;;;5.13;2.45;;;30.00;56.70;;;;;;4853788;29;20061;-81
2022/08/03 13:07:09;;;;;;;3.33;2.13;;;30.10;55.40;;;;;;4871487;29;20086;-82
2022/08/03 13:09:48;;;;;;;2.35;2.15;;;30.00;53.40;;;;;;4872569;29;20487;-81
2022/08/03 13:12:18;;;;;;;2.38;2.13;;;30.10;53.60;;;;;;4852553;29;20497;-81
2022/08/03 13:14:53;;;;;;;3.42;2.30;;;30.10;53.50;;;;;;4875035;29;20060;-82
2022/08/03 13:17:21;;;;;;;3.38;2.00;;;30.10;53.50;;;;;;4873157;29;20056;-83
2022/08/03 13:19:49;;;;;;;4.65;2.08;;;30.20;52.80;;;;;;4874965;29;20109;-81
2022/08/03 13:22:18;;;;;;;2.22;2.03;;;30.20;53.20;;;;;;4859969;29;20500;-83
2022/08/03 13:24:48;;;;;;;4.85;2.67;;;30.20;53.20;;;;;;4876393;29;20619;-83
2022/08/03 13:27:15;;;;;;;4.05;2.50;;;30.30;53.80;;;;;;4860378;29;20049;-83
2022/08/03 13:30:03;;;;;;;2.65;2.00;;;30.30;52.50;;;;;;4874351;29;20041;-83